Time;durP1;ratioP1;P1;durP2;ratioP2;P2;SDS_P1;SDS_P2;PMS_P1;PMS_P2;Temp;Humidity;BMP_temperature;BMP_pressure;BME280_temperature;BME280_humidity;BME280_pressure;Samples;Min_cycle;Max_cycle;Signal;HPM_P1;HPM_P2
2023/07/06 00:01:05;;;;;;;10.60;8.70;;;10.90;99.90;;;;;;5114834;27;20176;-40
2023/07/06 00:03:33;;;;;;;11.82;8.57;;;10.90;99.90;;;;;;5114562;27;20046;-40
2023/07/06 00:06:00;;;;;;;12.25;9.55;;;10.80;99.90;;;;;;5115316;27;20134;-41
2023/07/06 00:08:29;;;;;;;10.98;9.88;;;10.90;99.90;;;;;;5113872;27;20116;-40
2023/07/06 00:10:55;;;;;;;12.13;9.40;;;10.80;99.90;;;;;;5115372;27;20085;-42
2023/07/06 00:13:21;;;;;;;10.82;9.50;;;10.90;99.90;;;;;;5095371;27;20121;-41
2023/07/06 00:15:48;;;;;;;13.35;10.32;;;10.90;99.90;;;;;;5114549;27;20400;-42
2023/07/06 00:18:15;;;;;;;11.57;9.32;;;10.90;99.90;;;;;;5113082;27;20039;-43
2023/07/06 00:20:41;;;;;;;13.07;10.57;;;10.90;99.90;;;;;;5115114;27;20526;-43
2023/07/06 00:23:09;;;;;;;12.63;10.18;;;10.90;99.90;;;;;;5113809;27;20061;-41
2023/07/06 00:25:36;;;;;;;12.88;9.52;;;10.80;99.90;;;;;;5096420;28;20142;-41
2023/07/06 00:28:03;;;;;;;15.98;10.55;;;10.90;99.90;;;;;;5113221;27;20504;-40
2023/07/06 00:33:12;;;;;;;13.73;10.70;;;10.90;99.90;;;;;;5113560;27;20055;-42
2023/07/06 00:35:42;;;;;;;11.63;10.43;;;10.80;99.90;;;;;;5105439;27;20036;-40
2023/07/06 00:38:14;;;;;;;14.60;10.38;;;10.80;99.90;;;;;;5112239;27;20361;-40
2023/07/06 00:40:45;;;;;;;17.35;10.20;;;10.90;99.90;;;;;;5134883;27;20051;-41
2023/07/06 00:43:17;;;;;;;14.57;10.77;;;10.80;99.90;;;;;;5110202;28;20047;-41
2023/07/06 00:45:45;;;;;;;13.23;11.00;;;10.80;99.90;;;;;;5113540;27;20051;-43
2023/07/06 00:48:20;;;;;;;15.05;10.80;;;10.80;99.90;;;;;;5113193;27;20125;-40
2023/07/06 00:50:52;;;;;;;15.60;11.77;;;10.90;99.90;;;;;;5113734;27;20300;-41
2023/07/06 00:53:19;;;;;;;13.82;11.32;;;10.80;99.90;;;;;;5114253;27;20055;-41
2023/07/06 00:55:45;;;;;;;15.90;11.80;;;10.80;99.90;;;;;;5114118;27;20410;-41
2023/07/06 00:58:18;;;;;;;13.55;11.02;;;10.90;99.90;;;;;;5113449;27;20050;-43
2023/07/06 01:00:44;;;;;;;14.10;10.75;;;10.90;99.90;;;;;;5095171;28;20378;-42
2023/07/06 01:03:11;;;;;;;12.40;11.00;;;10.90;99.90;;;;;;5113334;27;20118;-40
2023/07/06 01:05:40;;;;;;;11.32;10.20;;;10.80;99.90;;;;;;5113629;27;20047;-41
2023/07/06 01:08:13;;;;;;;11.98;10.38;;;10.90;99.90;;;;;;5113344;27;20043;-43
2023/07/06 01:10:40;;;;;;;16.98;12.38;;;10.90;99.90;;;;;;5113570;27;20043;-41
2023/07/06 01:13:07;;;;;;;14.45;11.57;;;10.90;99.90;;;;;;5113476;27;20076;-40
2023/07/06 01:15:40;;;;;;;14.68;11.77;;;10.80;99.90;;;;;;5113683;27;20101;-41
2023/07/06 01:18:19;;;;;;;15.83;12.33;;;10.80;99.90;;;;;;5113526;27;20128;-40
2023/07/06 01:21:02;;;;;;;16.60;12.40;;;10.80;99.90;;;;;;5114675;27;20039;-41
2023/07/06 01:23:30;;;;;;;15.35;13.02;;;10.70;99.90;;;;;;5094828;28;20055;-41
2023/07/06 01:26:19;;;;;;;15.27;12.60;;;10.70;99.90;;;;;;5113987;27;20050;-41
2023/07/06 01:29:06;;;;;;;19.50;13.32;;;10.80;99.90;;;;;;5096609;27;20047;-42
2023/07/06 01:31:52;;;;;;;18.13;12.77;;;10.70;99.90;;;;;;5117642;27;20043;-41
2023/07/06 01:34:28;;;;;;;20.35;14.48;;;10.80;99.90;;;;;;5112863;27;20050;-42
2023/07/06 01:37:28;;;;;;;20.10;14.10;;;10.70;99.90;;;;;;5113597;27;20479;-43
2023/07/06 01:39:53;;;;;;;17.77;14.15;;;10.60;99.90;;;;;;5115037;27;20039;-43
2023/07/06 01:42:40;;;;;;;19.98;13.68;;;10.70;99.90;;;;;;5118259;27;20734;-43
2023/07/06 01:45:21;;;;;;;21.15;14.50;;;10.70;99.90;;;;;;5094603;27;20470;-45
2023/07/06 01:47:55;;;;;;;18.65;14.40;;;10.70;99.90;;;;;;5119414;27;20458;-41
2023/07/06 01:50:35;;;;;;;17.73;14.27;;;10.70;99.90;;;;;;5117868;27;20275;-42
2023/07/06 01:53:14;;;;;;;20.63;15.75;;;10.70;99.90;;;;;;5116814;27;20078;-43
2023/07/06 01:56:02;;;;;;;20.52;16.10;;;10.70;99.90;;;;;;5115713;27;20047;-43
2023/07/06 01:58:32;;;;;;;19.02;14.88;;;10.70;99.90;;;;;;5116277;27;20087;-41
2023/07/06 02:01:13;;;;;;;21.92;15.30;;;10.70;99.90;;;;;;5093076;27;20055;-42
2023/07/06 02:03:41;;;;;;;17.58;14.43;;;10.70;99.90;;;;;;5095381;27;20046;-41
2023/07/06 02:06:08;;;;;;;21.13;15.70;;;10.70;99.90;;;;;;5095593;27;20067;-41
2023/07/06 02:08:36;;;;;;;17.55;15.23;;;10.80;99.90;;;;;;5115906;27;20039;-41
2023/07/06 02:11:02;;;;;;;23.48;15.77;;;10.80;99.90;;;;;;5116442;27;20142;-41
2023/07/06 02:13:27;;;;;;;18.92;15.63;;;10.80;99.90;;;;;;5080495;27;20994;-41
2023/07/06 02:15:54;;;;;;;17.92;13.98;;;10.70;99.90;;;;;;5116618;27;20074;-43
2023/07/06 02:18:20;;;;;;;19.45;14.43;;;10.70;99.90;;;;;;5097618;27;20077;-42
2023/07/06 02:20:46;;;;;;;22.20;14.98;;;10.80;99.90;;;;;;5116337;27;20043;-42
2023/07/06 02:23:13;;;;;;;20.75;14.55;;;10.80;99.90;;;;;;5115585;27;20321;-42
2023/07/06 02:25:39;;;;;;;16.58;14.23;;;10.70;99.90;;;;;;5115836;27;20142;-42
2023/07/06 02:28:08;;;;;;;19.25;14.15;;;10.80;99.90;;;;;;5115428;27;20493;-41
2023/07/06 02:30:34;;;;;;;20.48;15.25;;;10.70;99.90;;;;;;5097702;27;20097;-41
2023/07/06 02:33:00;;;;;;;20.08;14.52;;;10.70;99.90;;;;;;5115553;27;20482;-43
2023/07/06 02:35:25;;;;;;;23.27;16.00;;;10.70;99.90;;;;;;5105976;27;20042;-42
2023/07/06 02:37:52;;;;;;;25.33;15.15;;;10.80;99.90;;;;;;5113587;27;20062;-41
2023/07/06 02:40:18;;;;;;;20.50;14.48;;;10.70;99.90;;;;;;5098567;27;20058;-42
2023/07/06 02:42:44;;;;;;;23.88;15.18;;;10.80;99.90;;;;;;5123381;27;20038;-41
2023/07/06 02:45:10;;;;;;;18.33;14.13;;;10.90;99.90;;;;;;5069698;27;20306;-41
2023/07/06 02:47:36;;;;;;;20.63;15.38;;;10.80;99.90;;;;;;5097106;27;20043;-45
2023/07/06 02:50:04;;;;;;;19.27;14.85;;;10.90;99.90;;;;;;5115671;27;20873;-41
2023/07/06 02:52:29;;;;;;;20.13;15.63;;;11.00;99.90;;;;;;5096865;27;20078;-42
2023/07/06 02:54:55;;;;;;;20.58;15.18;;;11.00;99.90;;;;;;5115294;27;20047;-43
2023/07/06 02:57:21;;;;;;;19.00;14.50;;;11.10;99.90;;;;;;5115229;27;20065;-42
2023/07/06 02:59:47;;;;;;;20.33;13.88;;;11.10;99.90;;;;;;5096127;27;20058;-42
2023/07/06 03:02:12;;;;;;;18.50;14.02;;;11.10;99.90;;;;;;5115665;27;20120;-40
2023/07/06 03:04:38;;;;;;;18.75;14.52;;;11.00;99.90;;;;;;5115031;27;20129;-43
2023/07/06 03:07:05;;;;;;;15.07;12.57;;;11.10;99.90;;;;;;5097144;27;20042;-43
2023/07/06 03:09:31;;;;;;;22.90;14.77;;;11.10;99.90;;;;;;5114724;27;20043;-43
2023/07/06 03:11:56;;;;;;;18.30;13.18;;;11.10;99.90;;;;;;5114413;27;20046;-41
2023/07/06 03:14:24;;;;;;;21.95;13.50;;;11.10;99.90;;;;;;5114761;27;20053;-41
2023/07/06 03:16:53;;;;;;;20.05;13.80;;;11.20;99.90;;;;;;5097117;27;20538;-42
2023/07/06 03:19:19;;;;;;;19.55;13.18;;;11.30;99.90;;;;;;5115258;27;20488;-41
2023/07/06 03:21:46;;;;;;;18.48;13.40;;;11.30;99.90;;;;;;5096120;27;20059;-42
2023/07/06 03:24:12;;;;;;;20.63;13.35;;;11.30;99.90;;;;;;5115196;27;20519;-43
2023/07/06 03:26:40;;;;;;;18.75;12.98;;;11.30;99.90;;;;;;5115000;27;20043;-41
2023/07/06 03:29:08;;;;;;;23.35;13.80;;;11.40;99.90;;;;;;5114235;27;20095;-42
2023/07/06 03:31:34;;;;;;;20.27;12.95;;;11.50;99.90;;;;;;5114491;27;20043;-41
2023/07/06 03:34:00;;;;;;;19.90;14.18;;;11.50;99.90;;;;;;5112199;27;20050;-40
2023/07/06 03:36:26;;;;;;;23.83;13.95;;;11.50;99.90;;;;;;5107179;27;20096;-42
2023/07/06 03:38:52;;;;;;;20.30;13.85;;;11.60;99.90;;;;;;5074726;27;20446;-42
2023/07/06 03:41:18;;;;;;;27.55;16.25;;;11.70;99.90;;;;;;5115510;27;20370;-41
2023/07/06 03:43:45;;;;;;;21.55;14.95;;;11.80;99.90;;;;;;5079277;27;20043;-41
2023/07/06 03:46:12;;;;;;;21.08;14.55;;;11.90;99.90;;;;;;5114524;27;20543;-42
2023/07/06 03:48:43;;;;;;;20.30;14.60;;;11.90;99.90;;;;;;5114726;27;20047;-41
2023/07/06 03:51:10;;;;;;;20.30;14.20;;;11.90;99.90;;;;;;5114649;27;20046;-40
2023/07/06 03:53:35;;;;;;;22.67;15.10;;;11.90;99.90;;;;;;5113855;27;20220;-43
2023/07/06 03:56:02;;;;;;;25.90;15.57;;;12.00;99.90;;;;;;5114220;27;20043;-41
2023/07/06 03:58:29;;;;;;;26.35;15.55;;;12.10;99.90;;;;;;5113983;27;20076;-41
2023/07/06 04:00:58;;;;;;;24.08;16.42;;;12.00;99.90;;;;;;5110926;27;20141;-42
2023/07/06 04:03:26;;;;;;;24.92;15.80;;;12.00;99.90;;;;;;5112473;27;20442;-42
2023/07/06 04:05:53;;;;;;;20.85;15.05;;;12.00;99.90;;;;;;5094997;27;20115;-42
2023/07/06 04:08:22;;;;;;;27.98;16.77;;;12.00;99.90;;;;;;5114318;27;20450;-41
2023/07/06 04:10:48;;;;;;;23.98;15.20;;;12.10;99.90;;;;;;5115642;27;20043;-42
2023/07/06 04:13:14;;;;;;;32.03;15.60;;;12.10;99.90;;;;;;5113832;27;20043;-43
2023/07/06 04:15:44;;;;;;;26.55;16.80;;;12.00;99.90;;;;;;5115205;27;20058;-41
2023/07/06 04:18:10;;;;;;;23.17;16.30;;;12.00;99.90;;;;;;5114221;27;20053;-41
2023/07/06 04:20:36;;;;;;;24.00;16.35;;;12.00;99.90;;;;;;5096252;27;20125;-42
2023/07/06 04:23:03;;;;;;;25.08;16.27;;;12.10;99.90;;;;;;5114482;27;20832;-42
2023/07/06 04:25:30;;;;;;;29.88;17.48;;;12.10;99.90;;;;;;5115162;27;20113;-42
2023/07/06 04:27:57;;;;;;;26.02;17.40;;;12.20;99.90;;;;;;5113993;27;20047;-41
2023/07/06 04:30:23;;;;;;;27.85;18.27;;;12.30;99.90;;;;;;5114866;27;20046;-42
2023/07/06 04:32:50;;;;;;;26.02;18.00;;;12.80;99.90;;;;;;5114593;27;20039;-42
2023/07/06 04:35:22;;;;;;;23.05;13.40;;;13.70;99.90;;;;;;5105033;27;20050;-41
2023/07/06 04:37:49;;;;;;;16.45;12.55;;;14.60;99.90;;;;;;5109968;27;20177;-41
2023/07/06 04:40:19;;;;;;;16.00;11.75;;;15.40;99.90;;;;;;5113773;27;20595;-44
2023/07/06 04:42:46;;;;;;;16.33;11.32;;;16.10;99.90;;;;;;5113226;27;20043;-43
2023/07/06 04:45:18;;;;;;;17.20;11.20;;;16.70;99.90;;;;;;5114307;27;20051;-43
2023/07/06 04:47:45;;;;;;;14.10;10.75;;;17.20;99.90;;;;;;5113938;27;20031;-44
2023/07/06 04:50:22;;;;;;;15.68;9.98;;;17.80;99.90;;;;;;5114147;27;20039;-43
2023/07/06 04:52:55;;;;;;;13.80;10.20;;;18.30;99.90;;;;;;5113732;27;20553;-42
2023/07/06 04:55:22;;;;;;;15.23;9.38;;;18.90;99.90;;;;;;5115272;27;20059;-43
2023/07/06 04:57:55;;;;;;;13.05;9.43;;;19.30;99.90;;;;;;5096177;28;20086;-43
2023/07/06 05:00:24;;;;;;;16.00;9.98;;;19.60;99.90;;;;;;5115543;27;20050;-42
2023/07/06 05:02:55;;;;;;;13.80;9.18;;;20.10;99.90;;;;;;5115334;27;20324;-42
2023/07/06 05:05:22;;;;;;;13.43;9.10;;;20.30;99.90;;;;;;5084283;27;20043;-44
2023/07/06 05:07:49;;;;;;;12.70;8.45;;;20.70;99.90;;;;;;5099779;27;20069;-43
2023/07/06 05:10:15;;;;;;;17.13;9.75;;;21.00;99.90;;;;;;5117438;27;20074;-44
2023/07/06 05:12:43;;;;;;;10.95;8.07;;;21.20;99.90;;;;;;5126282;27;20394;-43
2023/07/06 05:15:10;;;;;;;14.25;9.00;;;21.60;99.90;;;;;;5138423;27;21042;-44
2023/07/06 05:17:37;;;;;;;17.08;8.95;;;21.80;99.90;;;;;;5102198;27;20074;-44
2023/07/06 05:20:06;;;;;;;13.45;8.40;;;22.00;99.90;;;;;;5138015;27;20153;-43
2023/07/06 05:22:39;;;;;;;14.68;8.77;;;22.40;99.90;;;;;;5138040;27;20121;-43
2023/07/06 05:25:10;;;;;;;11.07;7.90;;;22.80;99.90;;;;;;5138558;27;20051;-45
2023/07/06 05:27:35;;;;;;;14.57;8.27;;;23.00;99.90;;;;;;5138012;27;20406;-43
2023/07/06 05:30:02;;;;;;;12.38;8.05;;;23.30;99.90;;;;;;5133113;27;20051;-43
2023/07/06 05:32:28;;;;;;;14.40;7.97;;;23.50;99.90;;;;;;5130390;27;20472;-44
2023/07/06 05:34:54;;;;;;;14.35;8.10;;;24.10;99.90;;;;;;5084297;28;20051;-44
2023/07/06 05:37:20;;;;;;;13.07;7.15;;;24.40;99.90;;;;;;5116846;27;20446;-45
2023/07/06 05:39:46;;;;;;;12.48;7.57;;;24.90;99.90;;;;;;5096772;27;20504;-43
2023/07/06 05:42:13;;;;;;;12.13;7.18;;;25.20;99.90;;;;;;5099913;27;20047;-43
2023/07/06 05:44:39;;;;;;;13.02;7.07;;;25.50;99.90;;;;;;5103247;27;20564;-43
2023/07/06 05:47:07;;;;;;;12.75;7.30;;;25.40;99.90;;;;;;5116759;27;20047;-46
2023/07/06 05:49:33;;;;;;;11.25;7.07;;;25.40;99.90;;;;;;5116628;27;20043;-43
2023/07/06 05:51:59;;;;;;;13.68;6.95;;;25.50;99.90;;;;;;5098757;27;20055;-45
2023/07/06 05:54:25;;;;;;;15.30;8.07;;;25.70;99.90;;;;;;5116931;27;20817;-46
2023/07/06 05:56:52;;;;;;;13.77;6.93;;;25.90;99.90;;;;;;5119098;27;20043;-44
2023/07/06 05:59:19;;;;;;;10.88;6.82;;;26.30;99.90;;;;;;5098135;27;20578;-44
2023/07/06 06:01:45;;;;;;;13.05;6.35;;;26.40;99.90;;;;;;5129676;27;20046;-46
2023/07/06 06:04:12;;;;;;;10.75;6.47;;;26.80;99.90;;;;;;5131543;27;20389;-44
2023/07/06 06:06:51;;;;;;;11.95;6.80;;;27.40;99.90;;;;;;5117282;27;20043;-47
2023/07/06 06:09:17;;;;;;;15.13;7.00;;;27.40;99.90;;;;;;5116927;27;20407;-43
2023/07/06 06:11:42;;;;;;;19.95;8.45;;;27.50;99.90;;;;;;5117234;27;20059;-44
2023/07/06 06:14:08;;;;;;;12.20;6.35;;;27.90;99.90;;;;;;5115824;27;20047;-44
2023/07/06 06:16:34;;;;;;;13.40;6.60;;;28.30;99.90;;;;;;5115077;27;20454;-43
2023/07/06 06:19:01;;;;;;;11.93;6.93;;;28.70;99.90;;;;;;5116093;27;20054;-44
2023/07/06 06:21:29;;;;;;;13.77;6.85;;;29.10;99.90;;;;;;5115926;27;20431;-42
2023/07/06 06:24:00;;;;;;;13.48;7.03;;;29.40;99.90;;;;;;5116402;27;20541;-45
2023/07/06 06:26:26;;;;;;;16.63;7.32;;;29.40;99.30;;;;;;5115981;27;20054;-45
2023/07/06 06:28:52;;;;;;;11.80;6.15;;;29.90;99.80;;;;;;5081033;27;20118;-43
2023/07/06 06:31:18;;;;;;;9.95;6.13;;;29.80;98.80;;;;;;5116506;27;20032;-41
2023/07/06 06:33:47;;;;;;;11.15;6.32;;;29.50;98.30;;;;;;5116331;27;20467;-43
2023/07/06 06:36:13;;;;;;;14.27;6.45;;;29.40;97.90;;;;;;5088655;27;20559;-44
2023/07/06 06:38:39;;;;;;;14.45;7.18;;;29.60;98.10;;;;;;5111532;27;20050;-42
2023/07/06 06:41:07;;;;;;;10.55;6.45;;;29.80;98.40;;;;;;5097371;27;20051;-44
2023/07/06 06:43:37;;;;;;;12.43;6.45;;;29.60;98.00;;;;;;5125066;27;20756;-43
2023/07/06 06:46:03;;;;;;;12.13;5.95;;;29.60;98.20;;;;;;5136946;27;20055;-44
2023/07/06 06:48:29;;;;;;;13.30;5.15;;;29.50;98.40;;;;;;5136904;27;20050;-43
2023/07/06 06:50:56;;;;;;;12.35;6.22;;;29.60;99.00;;;;;;5118522;27;20043;-45
2023/07/06 06:53:22;;;;;;;13.80;6.45;;;29.80;98.30;;;;;;5110337;27;20051;-45
2023/07/06 06:55:48;;;;;;;12.60;5.25;;;29.90;97.50;;;;;;5101510;27;20485;-43
2023/07/06 06:58:15;;;;;;;13.82;5.90;;;30.10;97.60;;;;;;5106160;27;20376;-44
2023/07/06 07:00:41;;;;;;;13.50;6.30;;;30.20;97.50;;;;;;5084822;27;20046;-43
2023/07/06 07:03:10;;;;;;;13.18;6.15;;;30.00;97.30;;;;;;5101912;27;20036;-43
2023/07/06 07:05:35;;;;;;;12.65;6.03;;;30.20;97.40;;;;;;5081693;28;20066;-43
2023/07/06 07:08:02;;;;;;;12.68;5.72;;;30.20;97.60;;;;;;5102093;27;20074;-45
2023/07/06 07:10:29;;;;;;;13.63;5.70;;;30.20;97.50;;;;;;5102439;27;20392;-44
2023/07/06 07:12:55;;;;;;;18.48;4.70;;;29.80;97.70;;;;;;5102292;27;20039;-43
2023/07/06 07:15:20;;;;;;;10.38;5.38;;;29.40;97.10;;;;;;5100174;27;20047;-45
2023/07/06 07:17:46;;;;;;;14.00;5.65;;;28.60;96.90;;;;;;5105166;27;20167;-44
2023/07/06 07:20:15;;;;;;;12.75;5.15;;;28.30;97.70;;;;;;5105394;27;20154;-44
2023/07/06 07:22:41;;;;;;;8.18;4.85;;;28.20;98.10;;;;;;5087951;27;20035;-44
2023/07/06 07:25:07;;;;;;;8.95;4.10;;;27.70;99.00;;;;;;5093788;27;20049;-44
2023/07/06 07:27:34;;;;;;;9.52;5.15;;;27.40;98.50;;;;;;5099866;27;20386;-43
2023/07/06 07:30:04;;;;;;;14.65;5.78;;;27.60;98.90;;;;;;5104389;27;20111;-43
2023/07/06 07:32:30;;;;;;;11.25;5.47;;;27.00;99.80;;;;;;5114633;27;20130;-43
2023/07/06 07:34:58;;;;;;;9.68;4.43;;;26.60;99.90;;;;;;5105446;27;20135;-44
2023/07/06 07:37:25;;;;;;;7.22;3.47;;;26.30;99.90;;;;;;5112007;27;20051;-43
2023/07/06 07:39:51;;;;;;;8.93;4.28;;;26.40;99.90;;;;;;5113726;27;20696;-43
2023/07/06 07:42:18;;;;;;;5.63;3.33;;;26.40;99.90;;;;;;5114741;27;20054;-44
2023/07/06 07:44:44;;;;;;;12.50;4.30;;;26.20;99.30;;;;;;5100165;27;20053;-46
2023/07/06 07:47:11;;;;;;;11.05;4.10;;;26.10;99.90;;;;;;5114100;27;20111;-44
2023/07/06 07:49:37;;;;;;;7.75;3.25;;;26.10;99.90;;;;;;5114126;27;20633;-43
2023/07/06 07:52:04;;;;;;;12.60;4.32;;;25.90;99.90;;;;;;5113911;27;20469;-43
2023/07/06 07:54:30;;;;;;;7.65;3.38;;;25.80;99.00;;;;;;5113760;27;20610;-43
2023/07/06 07:56:56;;;;;;;9.05;4.22;;;25.70;99.70;;;;;;5115183;27;20043;-44
2023/07/06 07:59:25;;;;;;;9.25;3.45;;;25.60;99.50;;;;;;5094884;27;20092;-43
2023/07/06 08:01:52;;;;;;;7.75;3.63;;;25.40;99.90;;;;;;5114902;27;20058;-45
2023/07/06 08:04:18;;;;;;;11.27;4.97;;;25.30;99.90;;;;;;5112963;27;20122;-43
2023/07/06 08:06:44;;;;;;;8.98;3.72;;;25.10;99.90;;;;;;5095360;27;20041;-43
2023/07/06 08:09:09;;;;;;;8.68;3.42;;;25.10;99.90;;;;;;5113251;27;20055;-42
2023/07/06 08:11:39;;;;;;;11.25;3.72;;;25.00;99.90;;;;;;5095110;27;20148;-45
2023/07/06 08:14:08;;;;;;;7.28;3.28;;;25.10;99.90;;;;;;5113047;27;20063;-43
2023/07/06 08:16:34;;;;;;;9.77;3.28;;;25.10;99.80;;;;;;5113575;27;20492;-43
2023/07/06 08:19:02;;;;;;;10.73;3.90;;;25.20;99.90;;;;;;5113068;27;20688;-43
2023/07/06 08:21:28;;;;;;;6.70;3.45;;;24.90;99.90;;;;;;5104163;27;20489;-45
2023/07/06 08:23:54;;;;;;;5.35;2.42;;;24.80;99.90;;;;;;5103394;27;20062;-44
2023/07/06 08:26:21;;;;;;;8.38;3.15;;;24.90;99.90;;;;;;5089930;27;20062;-44
2023/07/06 08:28:46;;;;;;;8.20;3.33;;;24.80;99.00;;;;;;5080821;28;20659;-42
2023/07/06 08:31:14;;;;;;;7.05;2.95;;;24.60;99.50;;;;;;5083582;27;20112;-43
2023/07/06 08:33:40;;;;;;;8.75;3.33;;;24.70;99.90;;;;;;5098486;27;20078;-45
2023/07/06 08:36:07;;;;;;;6.72;2.70;;;24.70;99.90;;;;;;5101603;27;20481;-45
2023/07/06 08:38:33;;;;;;;6.13;3.22;;;24.80;99.80;;;;;;5092393;27;20527;-45
2023/07/06 08:41:09;;;;;;;13.40;3.42;;;24.30;98.80;;;;;;5118770;27;20053;-45
2023/07/06 08:43:36;;;;;;;9.25;3.17;;;24.00;99.90;;;;;;5109291;27;20126;-44
2023/07/06 08:46:04;;;;;;;6.85;3.28;;;24.10;99.90;;;;;;5084961;27;20566;-44
2023/07/06 08:48:34;;;;;;;7.53;2.80;;;24.40;99.90;;;;;;5117164;27;20587;-43
2023/07/06 08:51:16;;;;;;;7.47;3.78;;;24.50;99.90;;;;;;5117346;27;20047;-44
2023/07/06 08:53:50;;;;;;;5.53;2.35;;;24.10;99.80;;;;;;5116560;27;20324;-43
2023/07/06 08:56:20;;;;;;;4.10;2.50;;;23.90;99.60;;;;;;5104566;27;20055;-43
2023/07/06 08:58:46;;;;;;;18.10;2.85;;;23.60;99.60;;;;;;5116589;27;20050;-43
2023/07/06 09:01:16;;;;;;;4.43;2.28;;;23.40;99.60;;;;;;5117520;27;20051;-43
2023/07/06 09:03:48;;;;;;;7.03;2.45;;;23.40;99.40;;;;;;5116505;27;20661;-42
2023/07/06 09:06:18;;;;;;;7.10;2.25;;;23.40;99.90;;;;;;5117061;27;20504;-42
2023/07/06 09:08:50;;;;;;;4.97;2.20;;;23.60;99.40;;;;;;5117047;27;20051;-43
2023/07/06 09:11:17;;;;;;;3.67;2.00;;;23.70;99.70;;;;;;5117111;27;20047;-45
2023/07/06 09:13:49;;;;;;;5.50;2.30;;;23.60;99.00;;;;;;5116764;27;20062;-43
2023/07/06 09:16:19;;;;;;;8.75;1.98;;;23.60;98.80;;;;;;5117944;27;20429;-44
2023/07/06 09:18:46;;;;;;;3.28;1.63;;;23.50;98.50;;;;;;5122523;27;20115;-43
2023/07/06 09:21:12;;;;;;;4.03;2.50;;;23.40;97.50;;;;;;5138326;27;20410;-44
2023/07/06 09:23:38;;;;;;;4.93;1.75;;;23.00;98.10;;;;;;5137215;27;20051;-42
2023/07/06 09:26:07;;;;;;;8.05;2.60;;;22.80;98.10;;;;;;5138331;27;20529;-44
2023/07/06 09:28:33;;;;;;;5.45;2.30;;;22.60;98.90;;;;;;5118575;27;20042;-43
2023/07/06 09:31:19;;;;;;;5.25;2.38;;;22.30;98.80;;;;;;5137628;27;20115;-43
2023/07/06 09:33:53;;;;;;;6.65;2.30;;;22.10;99.60;;;;;;5137246;27;20095;-42
2023/07/06 09:36:25;;;;;;;6.45;1.90;;;21.80;99.40;;;;;;5107602;27;20043;-43
2023/07/06 09:38:52;;;;;;;4.28;2.10;;;22.00;99.90;;;;;;5123168;27;20049;-42
2023/07/06 09:41:25;;;;;;;6.85;2.55;;;22.30;99.50;;;;;;5102558;27;20126;-44
2023/07/06 09:43:58;;;;;;;4.22;2.30;;;22.40;99.90;;;;;;5127361;27;20076;-43
2023/07/06 09:46:31;;;;;;;6.75;1.90;;;22.80;99.90;;;;;;5137993;27;20035;-43
2023/07/06 09:48:57;;;;;;;3.63;2.20;;;22.90;99.90;;;;;;5136882;27;20304;-44
2023/07/06 09:51:43;;;;;;;5.20;2.70;;;22.80;99.90;;;;;;5122716;27;20117;-43
2023/07/06 09:54:23;;;;;;;5.57;2.63;;;22.50;99.90;;;;;;5137081;27;20099;-42
2023/07/06 09:56:48;;;;;;;6.30;2.50;;;22.20;99.90;;;;;;5137665;27;20432;-43
2023/07/06 09:59:14;;;;;;;4.43;2.30;;;22.10;99.90;;;;;;5136101;27;20047;-42
2023/07/06 10:01:58;;;;;;;7.03;2.40;;;22.20;99.90;;;;;;5137653;27;20054;-42
2023/07/06 10:04:38;;;;;;;7.95;3.33;;;22.30;99.90;;;;;;5116657;27;20054;-43
2023/07/06 10:07:47;;;;;;;7.43;2.33;;;22.60;99.90;;;;;;5136115;27;20129;-45
2023/07/06 10:10:20;;;;;;;4.60;2.20;;;23.00;99.90;;;;;;5117207;27;20534;-43
2023/07/06 10:13:18;;;;;;;3.50;2.28;;;23.20;99.90;;;;;;5136101;27;20434;-44
2023/07/06 10:15:51;;;;;;;4.95;2.53;;;23.30;99.80;;;;;;5037467;28;20439;-43
2023/07/06 10:18:31;;;;;;;6.57;2.95;;;23.20;99.80;;;;;;5041054;28;20547;-42
2023/07/06 10:21:11;;;;;;;5.95;2.33;;;22.90;99.90;;;;;;5031718;28;20079;-43
2023/07/06 10:24:08;;;;;;;5.53;2.63;;;22.50;99.90;;;;;;5034137;28;20053;-42
2023/07/06 10:26:37;;;;;;;4.75;2.33;;;22.30;99.90;;;;;;5023856;28;20203;-45
2023/07/06 10:29:10;;;;;;;6.85;2.70;;;22.10;99.90;;;;;;5031371;28;20058;-44
2023/07/06 10:31:42;;;;;;;;;;;22.00;99.90;;;;;;5051794;28;20215;-42
2023/07/06 10:34:15;;;;;;;5.15;2.85;;;21.90;99.90;;;;;;5026713;28;19971;-42
2023/07/06 10:36:42;;;;;;;6.78;2.78;;;21.80;99.90;;;;;;5030763;28;20079;-42
2023/07/06 10:39:45;;;;;;;5.20;2.65;;;21.90;99.90;;;;;;5030586;28;20053;-42
2023/07/06 10:42:29;;;;;;;5.10;2.38;;;21.90;99.90;;;;;;5013994;28;20452;-42
2023/07/06 10:44:58;;;;;;;6.75;3.05;;;21.90;99.90;;;;;;5031469;28;20107;-45
2023/07/06 10:47:35;;;;;;;6.75;2.50;;;21.90;99.90;;;;;;5014012;28;20045;-43
2023/07/06 10:50:15;;;;;;;4.25;2.10;;;22.20;99.90;;;;;;5031514;28;20048;-43
2023/07/06 10:52:43;;;;;;;6.65;2.45;;;22.70;99.90;;;;;;5050342;27;20054;-43
2023/07/06 10:55:11;;;;;;;5.20;2.35;;;23.10;99.90;;;;;;5096829;27;20512;-42
2023/07/06 10:57:48;;;;;;;2.65;1.80;;;23.40;99.90;;;;;;5095597;27;20074;-42
2023/07/06 11:00:16;;;;;;;4.68;1.90;;;23.50;99.90;;;;;;5108357;27;20047;-42
2023/07/06 11:02:45;;;;;;;5.93;2.17;;;23.70;99.90;;;;;;5104752;27;20370;-43
2023/07/06 11:05:28;;;;;;;5.05;1.95;;;23.80;99.90;;;;;;5084011;27;20230;-43
2023/07/06 11:07:59;;;;;;;3.67;1.67;;;23.70;99.90;;;;;;5096568;27;20044;-42
2023/07/06 11:10:31;;;;;;;6.68;2.00;;;23.90;99.90;;;;;;5097015;27;20043;-45
2023/07/06 11:13:01;;;;;;;3.42;1.80;;;24.10;99.90;;;;;;5106355;27;20100;-43
2023/07/06 11:15:35;;;;;;;2.55;1.67;;;24.10;99.90;;;;;;5115074;27;20055;-43
2023/07/06 11:18:13;;;;;;;2.58;1.70;;;24.30;99.90;;;;;;5115519;27;20442;-42
2023/07/06 11:20:40;;;;;;;4.47;1.70;;;24.40;99.90;;;;;;5115541;27;20163;-43
2023/07/06 11:23:13;;;;;;;4.47;2.33;;;24.40;99.90;;;;;;5129731;27;20378;-42
2023/07/06 11:25:39;;;;;;;7.25;2.20;;;24.50;99.90;;;;;;5135310;27;20083;-42
2023/07/06 11:28:14;;;;;;;6.00;2.38;;;24.70;99.90;;;;;;5135158;27;20146;-43
2023/07/06 11:31:44;;;;;;;3.35;2.33;;;24.70;99.30;;;;;;5134641;27;20042;-43
2023/07/06 11:34:06;;;;;;;4.80;2.00;;;24.80;99.90;;;;;;5122130;27;20602;-42
2023/07/06 11:37:16;;;;;;;5.07;2.30;;;24.70;99.30;;;;;;5102938;27;20513;-42
2023/07/06 11:39:49;;;;;;;7.28;2.42;;;24.80;98.60;;;;;;5063905;28;20650;-42
2023/07/06 11:42:33;;;;;;;8.38;2.40;;;24.50;97.50;;;;;;5057653;28;20730;-42
2023/07/06 11:45:21;;;;;;;6.53;2.00;;;24.60;99.90;;;;;;5037197;28;20138;-43
2023/07/06 11:48:01;;;;;;;3.25;1.90;;;24.60;98.80;;;;;;5066171;28;20129;-43
2023/07/06 11:50:36;;;;;;;5.45;2.72;;;24.20;99.00;;;;;;5069927;28;20091;-42
2023/07/06 11:53:17;;;;;;;4.78;2.38;;;24.10;99.70;;;;;;5069736;28;20105;-44
2023/07/06 11:55:54;;;;;;;6.65;2.10;;;24.40;99.90;;;;;;5048502;28;20471;-43
2023/07/06 11:58:43;;;;;;;6.38;2.53;;;24.70;99.90;;;;;;5040108;28;20071;-42
2023/07/06 12:01:33;;;;;;;6.88;2.83;;;25.20;99.90;;;;;;5034491;28;20540;-43
2023/07/06 12:04:02;;;;;;;5.28;2.47;;;25.60;98.60;;;;;;5063956;28;20125;-44
2023/07/06 12:06:30;;;;;;;9.10;3.03;;;25.50;99.60;;;;;;5069821;28;20421;-43
2023/07/06 12:09:01;;;;;;;6.47;2.72;;;25.00;98.10;;;;;;5068370;28;20086;-45
2023/07/06 12:11:27;;;;;;;5.05;2.20;;;24.70;99.00;;;;;;5052034;28;20052;-44
2023/07/06 12:13:56;;;;;;;11.93;3.08;;;24.60;99.70;;;;;;5048869;28;20091;-45
2023/07/06 12:16:33;;;;;;;3.60;2.05;;;24.70;99.20;;;;;;5082834;27;20055;-44
2023/07/06 12:19:03;;;;;;;4.95;2.30;;;24.70;99.10;;;;;;5107963;27;20031;-42
2023/07/06 12:21:32;;;;;;;4.78;2.30;;;24.50;99.00;;;;;;5095677;27;20078;-43
2023/07/06 12:23:59;;;;;;;6.35;2.47;;;24.50;99.70;;;;;;5106194;27;20132;-43
2023/07/06 12:26:29;;;;;;;5.65;2.33;;;24.50;99.00;;;;;;5121216;27;20054;-44
2023/07/06 12:29:01;;;;;;;4.05;1.83;;;24.50;99.10;;;;;;5114725;27;20043;-43
2023/07/06 12:31:28;;;;;;;3.83;2.58;;;24.40;98.50;;;;;;5106981;27;20054;-43
2023/07/06 12:33:59;;;;;;;3.83;2.08;;;24.40;98.90;;;;;;5090299;27;20446;-43
2023/07/06 12:36:29;;;;;;;4.32;2.15;;;24.40;99.00;;;;;;5083990;27;20043;-42
2023/07/06 12:38:56;;;;;;;5.18;2.35;;;24.50;98.70;;;;;;5101458;27;20633;-44
2023/07/06 12:41:22;;;;;;;5.85;2.35;;;24.30;98.40;;;;;;5093144;28;20051;-47
2023/07/06 12:43:53;;;;;;;5.30;2.33;;;24.20;98.30;;;;;;5083160;28;20378;-45
2023/07/06 12:46:21;;;;;;;6.38;2.45;;;24.30;99.30;;;;;;5129185;27;20935;-41
2023/07/06 12:48:53;;;;;;;3.58;2.00;;;24.30;99.20;;;;;;5097264;27;20078;-42
2023/07/06 12:51:23;;;;;;;3.53;1.75;;;24.30;98.40;;;;;;5134902;27;20107;-43
2023/07/06 12:53:54;;;;;;;6.18;2.83;;;24.20;98.30;;;;;;5134885;27;20066;-43
2023/07/06 12:56:23;;;;;;;6.18;2.42;;;24.20;98.70;;;;;;5127209;27;20043;-43